TimeCDT,TemperatureF,Dew PointF,Humidity,Sea Level PressureIn,VisibilityMPH,Wind Direction,Wind SpeedMPH,Gust SpeedMPH,PrecipitationIn,Events,Conditions,WindDirDegrees,DateUTC
12:15 AM,72.7,50.4,45,30.04,10.0,SSE,11.5,-,N/A,,Clear,160,2013-09-09 05:15:00
12:35 AM,72.5,50.5,46,30.04,10.0,SSE,11.5,19.6,N/A,,Clear,160,2013-09-09 05:35:00
12:55 AM,70.5,50.7,49,30.04,10.0,SSE,9.2,-,N/A,,Clear,160,2013-09-09 05:55:00
1:15 AM,70.7,51.6,51,30.04,10.0,SSE,9.2,-,N/A,,Clear,160,2013-09-09 06:15:00
1:35 AM,70.2,52.3,53,30.04,10.0,SSE,9.2,-,N/A,,Clear,160,2013-09-09 06:35:00
1:55 AM,69.1,52.7,56,30.04,10.0,SSE,9.2,-,N/A,,Clear,160,2013-09-09 06:55:00
2:15 AM,68.9,53.2,57,30.05,10.0,South,9.2,-,N/A,,Clear,170,2013-09-09 07:15:00
2:35 AM,68.5,53.8,59,30.05,10.0,South,8.1,-,N/A,,Clear,180,2013-09-09 07:35:00
2:55 AM,67.6,54.5,63,30.04,10.0,South,6.9,-,N/A,,Clear,170,2013-09-09 07:55:00
3:15 AM,67.1,54.5,64,30.04,10.0,South,5.8,-,N/A,,Clear,190,2013-09-09 08:15:00
3:35 AM,65.7,54.5,67,30.04,10.0,South,5.8,-,N/A,,Clear,180,2013-09-09 08:35:00
3:55 AM,64.6,54.3,69,30.04,10.0,South,6.9,-,N/A,,Clear,180,2013-09-09 08:55:00
4:15 AM,64.0,54.5,71,30.04,10.0,South,6.9,-,N/A,,Clear,180,2013-09-09 09:15:00
4:35 AM,63.5,54.5,72,30.04,10.0,South,5.8,-,N/A,,Clear,190,2013-09-09 09:35:00
4:55 AM,62.6,54.5,75,30.04,10.0,South,6.9,-,N/A,,Clear,180,2013-09-09 09:55:00
5:15 AM,63.1,54.9,74,30.04,10.0,South,6.9,-,N/A,,Clear,180,2013-09-09 10:15:00
5:35 AM,63.3,55.4,75,30.04,10.0,South,5.8,-,N/A,,Clear,190,2013-09-09 10:35:00
5:55 AM,62.8,55.4,77,30.04,10.0,South,5.8,-,N/A,,Clear,180,2013-09-09 10:55:00
6:15 AM,62.2,55.4,78,30.04,10.0,South,5.8,-,N/A,,Clear,190,2013-09-09 11:15:00
6:35 AM,62.2,55.4,78,30.04,10.0,SSW,5.8,-,N/A,,Clear,200,2013-09-09 11:35:00
6:55 AM,62.1,55.4,79,30.05,10.0,SSW,4.6,-,N/A,,Clear,210,2013-09-09 11:55:00
7:15 AM,61.9,55.4,79,30.05,10.0,SSW,4.6,-,N/A,,Clear,210,2013-09-09 12:15:00
7:35 AM,59.9,54.9,83,30.05,10.0,South,5.8,-,N/A,,Clear,170,2013-09-09 12:35:00
7:55 AM,60.1,54.7,82,30.05,10.0,South,5.8,-,N/A,,Clear,190,2013-09-09 12:55:00
8:15 AM,62.2,55.8,79,30.05,10.0,South,5.8,-,N/A,,Clear,180,2013-09-09 13:15:00
8:35 AM,65.3,56.7,74,30.06,10.0,South,9.2,-,N/A,,Clear,180,2013-09-09 13:35:00
8:55 AM,68.9,59.0,71,30.07,10.0,South,12.7,-,N/A,,Clear,190,2013-09-09 13:55:00
9:15 AM,71.1,59.5,67,30.07,10.0,SSW,12.7,-,N/A,,Clear,200,2013-09-09 14:15:00
9:35 AM,72.9,59.9,64,30.07,10.0,South,15.0,-,N/A,,Clear,190,2013-09-09 14:35:00
9:55 AM,74.3,60.3,61,30.07,10.0,SSW,15.0,19.6,N/A,,Clear,200,2013-09-09 14:55:00
10:15 AM,75.6,60.4,59,30.07,10.0,SSW,13.8,18.4,N/A,,Clear,200,2013-09-09 15:15:00
10:35 AM,75.9,60.6,59,30.07,10.0,SW,15.0,-,N/A,,Clear,220,2013-09-09 15:35:00
10:55 AM,77.5,60.6,56,30.07,10.0,SSW,12.7,19.6,N/A,,Clear,210,2013-09-09 15:55:00
11:15 AM,79.3,60.1,52,30.07,10.0,SW,13.8,18.4,N/A,,Clear,220,2013-09-09 16:15:00
11:35 AM,80.8,59.0,47,30.07,10.0,SSW,11.5,20.7,N/A,,Clear,200,2013-09-09 16:35:00
11:55 AM,81.5,57.9,44,30.07,10.0,SSW,13.8,18.4,N/A,,Clear,210,2013-09-09 16:55:00
12:15 PM,82.4,57.0,42,30.07,10.0,SSW,12.7,21.9,N/A,,Clear,200,2013-09-09 17:15:00
12:35 PM,82.4,57.0,42,30.07,10.0,SSW,15.0,19.6,N/A,,Clear,210,2013-09-09 17:35:00
12:55 PM,85.1,55.0,36,30.06,10.0,South,15.0,20.7,N/A,,Scattered Clouds,180,2013-09-09 17:55:00
1:15 PM,85.1,54.5,35,30.05,10.0,South,15.0,21.9,N/A,,Scattered Clouds,190,2013-09-09 18:15:00
1:35 PM,85.6,53.1,33,30.05,10.0,South,12.7,20.7,N/A,,Scattered Clouds,170,2013-09-09 18:35:00
1:55 PM,84.2,54.0,35,30.04,10.0,SSW,10.4,21.9,N/A,,Scattered Clouds,200,2013-09-09 18:55:00
2:15 PM,87.1,53.2,31,30.03,10.0,South,10.4,25.3,N/A,,Scattered Clouds,180,2013-09-09 19:15:00
2:35 PM,86.9,52.5,31,30.02,10.0,South,19.6,26.5,N/A,,Scattered Clouds,180,2013-09-09 19:35:00
2:55 PM,87.8,51.6,29,30.01,10.0,South,17.3,24.2,N/A,,Clear,170,2013-09-09 19:55:00
3:15 PM,88.2,50.9,28,30.01,10.0,SSE,13.8,24.2,N/A,,Scattered Clouds,160,2013-09-09 20:15:00
3:35 PM,87.8,50.4,27,30.00,10.0,South,18.4,23.0,N/A,,Scattered Clouds,180,2013-09-09 20:35:00
3:55 PM,89.2,50.7,27,30.00,10.0,South,17.3,23.0,N/A,,Scattered Clouds,170,2013-09-09 20:55:00
4:15 PM,88.5,50.5,27,29.99,10.0,South,18.4,27.6,N/A,,Scattered Clouds,170,2013-09-09 21:15:00
4:35 PM,88.2,50.9,28,29.98,10.0,SSE,15.0,25.3,N/A,,Scattered Clouds,160,2013-09-09 21:35:00
4:55 PM,87.6,50.9,28,29.98,10.0,South,18.4,26.5,N/A,,Scattered Clouds,170,2013-09-09 21:55:00
5:15 PM,88.0,51.6,29,29.98,10.0,SSE,18.4,28.8,N/A,,Clear,160,2013-09-09 22:15:00
5:35 PM,87.1,50.7,29,29.98,10.0,South,15.0,25.3,N/A,,Clear,180,2013-09-09 22:35:00
5:55 PM,86.9,51.1,29,29.98,10.0,South,19.6,25.3,N/A,,Scattered Clouds,170,2013-09-09 22:55:00
6:15 PM,86.2,50.9,30,29.97,10.0,SSE,21.9,27.6,N/A,,Scattered Clouds,160,2013-09-09 23:15:00
6:35 PM,85.3,51.4,31,29.97,10.0,SSE,18.4,25.3,N/A,,Clear,160,2013-09-09 23:35:00
6:55 PM,84.6,51.3,32,29.96,10.0,South,17.3,21.9,N/A,,Clear,170,2013-09-09 23:55:00
7:15 PM,83.8,51.3,32,29.96,10.0,South,13.8,-,N/A,,Clear,170,2013-09-10 00:15:00
7:35 PM,82.6,50.9,33,29.97,10.0,South,16.1,-,N/A,,Clear,170,2013-09-10 00:35:00
7:55 PM,81.1,53.2,38,29.98,10.0,SSE,15.0,23.0,N/A,,Clear,160,2013-09-10 00:55:00
8:15 PM,80.1,53.6,40,29.99,10.0,SSE,13.8,21.9,N/A,,Clear,160,2013-09-10 01:15:00
8:35 PM,78.8,53.6,42,30.00,10.0,SSE,11.5,-,N/A,,Clear,160,2013-09-10 01:35:00
8:55 PM,77.9,53.4,43,30.00,10.0,SSE,10.4,-,N/A,,Clear,160,2013-09-10 01:55:00
9:15 PM,77.2,53.1,43,30.01,10.0,SSE,10.4,-,N/A,,Clear,160,2013-09-10 02:15:00
9:35 PM,76.6,53.1,44,30.02,10.0,SSE,9.2,-,N/A,,Clear,150,2013-09-10 02:35:00
9:55 PM,75.6,53.1,45,30.03,10.0,SSE,11.5,-,N/A,,Clear,160,2013-09-10 02:55:00
10:15 PM,74.7,53.6,48,30.03,10.0,SSE,11.5,16.1,N/A,,Clear,160,2013-09-10 03:15:00
10:35 PM,73.9,53.8,49,30.04,10.0,SSE,8.1,-,N/A,,Clear,160,2013-09-10 03:35:00
10:55 PM,72.0,53.6,52,30.05,10.0,SSE,8.1,-,N/A,,Clear,160,2013-09-10 03:55:00
11:15 PM,71.6,54.3,54,30.05,10.0,SSE,8.1,-,N/A,,Clear,160,2013-09-10 04:15:00
11:35 PM,71.6,54.5,55,30.05,10.0,SSE,8.1,-,N/A,,Clear,160,2013-09-10 04:35:00
11:55 PM,70.7,55.0,58,30.06,10.0,South,6.9,-,N/A,,Clear,180,2013-09-10 04:55:00